Time;durP1;ratioP1;P1;durP2;ratioP2;P2;SDS_P1;SDS_P2;PMS_P1;PMS_P2;Temp;Humidity;BMP_temperature;BMP_pressure;BME280_temperature;BME280_humidity;BME280_pressure;Samples;Min_cycle;Max_cycle;Signal;HPM_P1;HPM_P2
2020/12/30 00:01:02;;;;;;;35.05;20.55;;;;;;;;;;5054224;28;20535;-69
2020/12/30 00:03:28;;;;;;;35.13;21.35;;;;;;;;;;5054171;28;20009;-69
2020/12/30 00:05:54;;;;;;;32.83;20.95;;;;;;;;;;5053079;28;20334;-69
2020/12/30 00:08:20;;;;;;;33.75;19.90;;;;;;;;;;5054198;28;20125;-69
2020/12/30 00:10:46;;;;;;;34.42;21.88;;;;;;;;;;5054270;28;20354;-69
2020/12/30 00:13:12;;;;;;;36.50;22.58;;;;;;;;;;5054274;28;20519;-69
2020/12/30 00:15:38;;;;;;;35.53;21.90;;;;;;;;;;5053898;28;20032;-68
2020/12/30 00:18:04;;;;;;;37.20;22.67;;;;;;;;;;5052978;28;20067;-70
2020/12/30 00:20:30;;;;;;;36.17;23.27;;;;;;;;;;5054009;28;20017;-70
2020/12/30 00:22:57;;;;;;;36.90;22.80;;;;;;;;;;5054130;28;20017;-68
2020/12/30 00:25:23;;;;;;;37.17;22.02;;;;;;;;;;5053842;28;20021;-68
2020/12/30 00:27:49;;;;;;;43.85;24.35;;;;;;;;;;5054007;28;20039;-68
2020/12/30 00:30:16;;;;;;;40.13;24.42;;;;;;;;;;5054001;28;20397;-68
2020/12/30 00:32:43;;;;;;;54.55;26.63;;;;;;;;;;5053957;28;20100;-68
2020/12/30 00:35:10;;;;;;;40.83;24.80;;;;;;;;;;5053478;28;20078;-68
2020/12/30 00:37:36;;;;;;;36.88;23.30;;;;;;;;;;5053487;28;20092;-69
2020/12/30 00:40:03;;;;;;;36.05;22.77;;;;;;;;;;5053829;28;20013;-69
2020/12/30 00:42:29;;;;;;;41.55;24.17;;;;;;;;;;5053814;28;20017;-69
2020/12/30 00:44:55;;;;;;;38.13;23.63;;;;;;;;;;5053700;28;20071;-69
2020/12/30 00:47:21;;;;;;;43.33;23.42;;;;;;;;;;5053081;28;20028;-69
2020/12/30 00:49:47;;;;;;;40.55;23.67;;;;;;;;;;5053539;28;20025;-69
2020/12/30 00:52:13;;;;;;;43.30;26.27;;;;;;;;;;5053305;28;20067;-69
2020/12/30 00:54:39;;;;;;;38.85;24.33;;;;;;;;;;5053175;28;20048;-69
2020/12/30 00:57:05;;;;;;;37.40;23.25;;;;;;;;;;5053412;28;20049;-69
2020/12/30 00:59:31;;;;;;;39.97;24.77;;;;;;;;;;5052329;28;20096;-69
2020/12/30 01:01:57;;;;;;;47.10;26.30;;;;;;;;;;5053343;28;20360;-69
2020/12/30 01:04:23;;;;;;;38.70;24.27;;;;;;;;;;5053142;28;20033;-69
2020/12/30 01:06:53;;;;;;;38.83;21.98;;;;;;;;;;5053118;28;20058;-69
2020/12/30 01:09:20;;;;;;;41.47;24.90;;;;;;;;;;5051935;28;20021;-69
2020/12/30 01:11:46;;;;;;;39.15;23.50;;;;;;;;;;5053185;28;20031;-69
2020/12/30 01:14:12;;;;;;;47.35;25.90;;;;;;;;;;5053193;28;20017;-69
2020/12/30 01:16:38;;;;;;;42.45;26.80;;;;;;;;;;5052902;28;20021;-69
2020/12/30 01:19:05;;;;;;;41.35;26.65;;;;;;;;;;5053089;28;20021;-69
2020/12/30 01:21:31;;;;;;;35.83;22.88;;;;;;;;;;5052813;28;20031;-69
2020/12/30 01:23:57;;;;;;;48.40;26.75;;;;;;;;;;5053220;28;20021;-69
2020/12/30 01:26:23;;;;;;;48.65;27.83;;;;;;;;;;5052998;28;20036;-69
2020/12/30 01:28:49;;;;;;;52.42;28.45;;;;;;;;;;5052940;28;20055;-69
2020/12/30 01:31:15;;;;;;;45.05;26.30;;;;;;;;;;5052692;28;20476;-69
2020/12/30 01:33:43;;;;;;;43.85;28.05;;;;;;;;;;5052538;28;20025;-69
2020/12/30 01:36:11;;;;;;;45.08;27.20;;;;;;;;;;5052382;28;20401;-69
2020/12/30 01:38:37;;;;;;;49.55;30.40;;;;;;;;;;5052277;28;20056;-69
2020/12/30 01:41:03;;;;;;;44.67;28.52;;;;;;;;;;5051372;28;20372;-69
2020/12/30 01:43:29;;;;;;;50.80;28.80;;;;;;;;;;5052138;28;20056;-69
2020/12/30 01:45:55;;;;;;;45.10;26.73;;;;;;;;;;5052857;28;20052;-70
2020/12/30 01:48:24;;;;;;;46.00;27.88;;;;;;;;;;5052458;28;20075;-69
2020/12/30 01:50:50;;;;;;;47.00;28.30;;;;;;;;;;5052556;28;20522;-69
2020/12/30 01:53:16;;;;;;;49.28;28.83;;;;;;;;;;5051240;28;20025;-69
2020/12/30 01:55:42;;;;;;;48.58;30.70;;;;;;;;;;5052215;28;20397;-69
2020/12/30 01:58:09;;;;;;;51.72;29.17;;;;;;;;;;5052386;28;20016;-69
2020/12/30 02:00:35;;;;;;;46.63;28.67;;;;;;;;;;5052037;28;20045;-69
2020/12/30 02:03:03;;;;;;;49.72;29.05;;;;;;;;;;5052305;28;20013;-69
2020/12/30 02:05:32;;;;;;;48.13;29.58;;;;;;;;;;5052139;28;20116;-69
2020/12/30 02:07:59;;;;;;;49.35;28.67;;;;;;;;;;5052164;28;20027;-69
2020/12/30 02:10:27;;;;;;;47.80;29.08;;;;;;;;;;5051902;28;20680;-69
2020/12/30 02:12:53;;;;;;;46.15;29.55;;;;;;;;;;5052231;28;20648;-69
2020/12/30 02:15:23;;;;;;;48.90;29.10;;;;;;;;;;5052088;28;20017;-69
2020/12/30 02:17:49;;;;;;;47.92;28.23;;;;;;;;;;5052247;28;20381;-69
2020/12/30 02:20:15;;;;;;;47.85;28.40;;;;;;;;;;5052210;28;20469;-69
2020/12/30 02:22:42;;;;;;;50.60;30.27;;;;;;;;;;5051923;28;20017;-69
2020/12/30 02:25:08;;;;;;;49.28;29.50;;;;;;;;;;5052164;28;20108;-69
2020/12/30 02:27:34;;;;;;;49.28;28.95;;;;;;;;;;5051950;28;20064;-69
2020/12/30 02:30:00;;;;;;;53.50;30.60;;;;;;;;;;5052111;28;20020;-68
2020/12/30 02:32:26;;;;;;;46.47;28.17;;;;;;;;;;5051180;28;20040;-68
2020/12/30 02:34:53;;;;;;;59.60;29.50;;;;;;;;;;5052023;28;20103;-68
2020/12/30 02:37:21;;;;;;;52.65;30.15;;;;;;;;;;5051758;28;20414;-69
2020/12/30 02:39:48;;;;;;;51.95;31.00;;;;;;;;;;5051789;28;20024;-69
2020/12/30 02:42:14;;;;;;;44.78;29.33;;;;;;;;;;5052009;28;20021;-69
2020/12/30 02:44:40;;;;;;;53.78;31.35;;;;;;;;;;5051790;28;20361;-69
2020/12/30 02:47:06;;;;;;;52.58;29.92;;;;;;;;;;5051599;28;20021;-69
2020/12/30 02:49:32;;;;;;;51.92;28.45;;;;;;;;;;5051440;28;20020;-69
2020/12/30 02:51:58;;;;;;;51.38;29.25;;;;;;;;;;5052173;28;20461;-69
2020/12/30 02:54:24;;;;;;;48.33;28.60;;;;;;;;;;5052055;28;20028;-69
2020/12/30 02:56:50;;;;;;;49.08;28.83;;;;;;;;;;5051691;28;20032;-69
2020/12/30 02:59:15;;;;;;;53.92;30.40;;;;;;;;;;5051857;28;20021;-69
2020/12/30 03:01:45;;;;;;;52.88;29.80;;;;;;;;;;5051934;28;20523;-69
2020/12/30 03:04:11;;;;;;;43.85;27.38;;;;;;;;;;5051720;28;20514;-69
2020/12/30 03:06:37;;;;;;;49.72;28.83;;;;;;;;;;5051595;28;20475;-69
2020/12/30 03:09:03;;;;;;;50.20;29.65;;;;;;;;;;5051648;28;20021;-69
2020/12/30 03:11:29;;;;;;;43.78;28.30;;;;;;;;;;5051236;28;20314;-69
2020/12/30 03:13:55;;;;;;;43.58;28.02;;;;;;;;;;5051541;28;20055;-69
2020/12/30 03:16:21;;;;;;;47.75;29.05;;;;;;;;;;5051782;28;20021;-69
2020/12/30 03:18:48;;;;;;;45.20;29.55;;;;;;;;;;5051142;28;20521;-69
2020/12/30 03:21:14;;;;;;;43.15;27.40;;;;;;;;;;5051584;28;20021;-70
2020/12/30 03:23:40;;;;;;;49.80;28.48;;;;;;;;;;5053681;28;20025;-70
2020/12/30 03:26:06;;;;;;;47.05;28.38;;;;;;;;;;5055188;28;20468;-69
2020/12/30 03:28:32;;;;;;;52.33;28.17;;;;;;;;;;5054964;28;20067;-69
2020/12/30 03:30:58;;;;;;;46.03;27.60;;;;;;;;;;5054678;28;20461;-70
2020/12/30 03:33:24;;;;;;;50.35;28.05;;;;;;;;;;5055108;28;20017;-69
2020/12/30 03:35:50;;;;;;;46.55;26.85;;;;;;;;;;5054689;28;20032;-69
2020/12/30 03:38:16;;;;;;;50.17;29.33;;;;;;;;;;5055091;28;20417;-69
2020/12/30 03:40:42;;;;;;;45.42;27.90;;;;;;;;;;5054456;28;20017;-69
2020/12/30 03:43:08;;;;;;;42.17;25.23;;;;;;;;;;5054909;28;20059;-69
2020/12/30 03:45:34;;;;;;;45.72;28.45;;;;;;;;;;5054897;28;20032;-69
2020/12/30 03:48:00;;;;;;;45.28;27.60;;;;;;;;;;5054513;28;20106;-69
2020/12/30 03:50:26;;;;;;;48.28;27.85;;;;;;;;;;5054744;28;20527;-69
2020/12/30 03:52:52;;;;;;;46.53;27.33;;;;;;;;;;5054507;28;20369;-69
2020/12/30 03:55:18;;;;;;;48.65;28.15;;;;;;;;;;5054597;28;20032;-69
2020/12/30 03:57:44;;;;;;;48.00;27.60;;;;;;;;;;5054439;28;20029;-69
2020/12/30 04:00:10;;;;;;;43.35;26.58;;;;;;;;;;5053380;28;20025;-69
2020/12/30 04:02:36;;;;;;;41.85;26.80;;;;;;;;;;5054260;28;20100;-69
2020/12/30 04:05:03;;;;;;;49.65;28.85;;;;;;;;;;5054267;28;20099;-69
2020/12/30 04:07:29;;;;;;;48.67;27.85;;;;;;;;;;5054548;28;20075;-69
2020/12/30 04:09:55;;;;;;;45.63;25.92;;;;;;;;;;5054543;28;20025;-69
2020/12/30 04:12:21;;;;;;;51.05;29.80;;;;;;;;;;5054333;28;20174;-68
2020/12/30 04:14:47;;;;;;;45.97;28.02;;;;;;;;;;5054118;28;20021;-68
2020/12/30 04:17:13;;;;;;;50.25;29.30;;;;;;;;;;5054234;28;20029;-68
2020/12/30 04:19:39;;;;;;;43.10;26.77;;;;;;;;;;5053941;28;20096;-68
2020/12/30 04:22:05;;;;;;;45.60;27.63;;;;;;;;;;5053797;28;20040;-68
2020/12/30 04:24:31;;;;;;;44.22;26.80;;;;;;;;;;5053854;28;20067;-69
2020/12/30 04:26:57;;;;;;;45.50;28.50;;;;;;;;;;5053999;28;20099;-68
2020/12/30 04:29:24;;;;;;;58.95;31.17;;;;;;;;;;5053961;28;20096;-68
2020/12/30 04:31:49;;;;;;;50.00;29.08;;;;;;;;;;5053605;28;20071;-68
2020/12/30 04:34:15;;;;;;;49.13;29.17;;;;;;;;;;5053736;28;20025;-70
2020/12/30 04:36:41;;;;;;;53.45;29.52;;;;;;;;;;5053827;28;20457;-68
2020/12/30 04:39:08;;;;;;;49.25;30.60;;;;;;;;;;5053821;28;20092;-68
2020/12/30 04:41:35;;;;;;;52.95;29.52;;;;;;;;;;5053496;28;20108;-68
2020/12/30 04:44:02;;;;;;;59.70;34.00;;;;;;;;;;5053671;28;20025;-69
2020/12/30 04:46:28;;;;;;;74.20;36.72;;;;;;;;;;5053568;28;20009;-69
2020/12/30 04:48:56;;;;;;;60.78;32.97;;;;;;;;;;5052106;28;20020;-69
2020/12/30 04:51:23;;;;;;;49.40;29.45;;;;;;;;;;5053569;28;20021;-69
2020/12/30 04:53:50;;;;;;;53.92;30.13;;;;;;;;;;5053189;28;20098;-69
2020/12/30 04:56:17;;;;;;;59.30;30.90;;;;;;;;;;5053407;28;20108;-68
2020/12/30 04:58:43;;;;;;;46.03;28.10;;;;;;;;;;5053166;28;20013;-69
2020/12/30 05:01:12;;;;;;;50.63;29.55;;;;;;;;;;5053367;28;20017;-69
2020/12/30 05:03:45;;;;;;;57.50;28.17;;;;;;;;;;5053087;28;20040;-70
2020/12/30 05:06:12;;;;;;;48.42;27.52;;;;;;;;;;5053304;28;20013;-70
2020/12/30 05:08:40;;;;;;;51.08;29.50;;;;;;;;;;5053113;28;20013;-70
2020/12/30 05:11:06;;;;;;;78.18;38.22;;;;;;;;;;5053127;28;20025;-70
2020/12/30 05:13:32;;;;;;;54.10;31.95;;;;;;;;;;5053075;28;20020;-70
2020/12/30 05:15:58;;;;;;;59.78;33.65;;;;;;;;;;5052697;28;20033;-70
2020/12/30 05:18:24;;;;;;;49.25;29.27;;;;;;;;;;5053267;28;20403;-70
2020/12/30 05:20:50;;;;;;;52.60;29.83;;;;;;;;;;5052832;28;20091;-70
2020/12/30 05:23:17;;;;;;;56.42;32.58;;;;;;;;;;5052937;28;20477;-70
2020/12/30 05:25:43;;;;;;;52.47;28.85;;;;;;;;;;5052653;28;20100;-69
2020/12/30 05:28:11;;;;;;;49.28;29.20;;;;;;;;;;5052873;28;20021;-70
2020/12/30 05:30:37;;;;;;;51.53;30.90;;;;;;;;;;5052662;28;20098;-69
2020/12/30 05:33:04;;;;;;;50.35;31.30;;;;;;;;;;5052948;28;20378;-70
2020/12/30 05:35:30;;;;;;;44.85;28.23;;;;;;;;;;5052679;28;20067;-69
2020/12/30 05:37:58;;;;;;;53.72;30.35;;;;;;;;;;5052628;28;20021;-69
2020/12/30 05:40:25;;;;;;;50.03;28.92;;;;;;;;;;5052729;28;20107;-69
2020/12/30 05:42:51;;;;;;;48.10;29.25;;;;;;;;;;5052167;28;20020;-70
2020/12/30 05:45:18;;;;;;;50.22;29.20;;;;;;;;;;5052164;28;20032;-70
2020/12/30 05:47:45;;;;;;;55.25;31.20;;;;;;;;;;5052339;28;20020;-68
2020/12/30 05:50:12;;;;;;;48.42;29.55;;;;;;;;;;5052539;28;20017;-69
2020/12/30 05:52:38;;;;;;;49.47;30.08;;;;;;;;;;5052195;28;20013;-69
2020/12/30 05:55:07;;;;;;;51.20;30.77;;;;;;;;;;5052334;28;20025;-69
2020/12/30 05:57:34;;;;;;;49.58;29.38;;;;;;;;;;5052344;28;20457;-69
2020/12/30 06:00:13;;;;;;;44.63;25.52;;;;;;;;;;5052144;28;20021;-68
2020/12/30 06:02:43;;;;;;;49.50;29.55;;;;;;;;;;5052028;28;20017;-68
2020/12/30 06:05:16;;;;;;;48.03;29.80;;;;;;;;;;5052250;28;20371;-68
2020/12/30 06:07:43;;;;;;;45.03;28.30;;;;;;;;;;5052077;28;20013;-68
2020/12/30 06:10:10;;;;;;;45.53;28.48;;;;;;;;;;5052324;28;20079;-68
2020/12/30 06:12:51;;;;;;;52.08;30.02;;;;;;;;;;5052192;28;20013;-68
2020/12/30 06:15:18;;;;;;;52.22;30.27;;;;;;;;;;5052054;28;20048;-68
2020/12/30 06:17:58;;;;;;;50.80;30.60;;;;;;;;;;5051898;28;20025;-69
2020/12/30 06:20:30;;;;;;;45.15;27.83;;;;;;;;;;5052227;28;20115;-69
2020/12/30 06:22:57;;;;;;;51.08;29.85;;;;;;;;;;5051881;28;20012;-69
2020/12/30 06:25:24;;;;;;;51.08;28.65;;;;;;;;;;5051890;28;20570;-69
2020/12/30 06:27:51;;;;;;;49.38;29.02;;;;;;;;;;5051823;28;20088;-69
2020/12/30 06:30:17;;;;;;;49.17;29.58;;;;;;;;;;5052078;28;20108;-69
2020/12/30 06:32:43;;;;;;;49.78;28.08;;;;;;;;;;5051793;28;20052;-69
2020/12/30 06:35:10;;;;;;;46.25;28.38;;;;;;;;;;5051859;28;20474;-68
2020/12/30 06:37:37;;;;;;;48.33;29.45;;;;;;;;;;5052132;28;20037;-68
2020/12/30 06:40:26;;;;;;;44.30;28.08;;;;;;;;;;5052222;28;20099;-68
2020/12/30 06:42:56;;;;;;;46.67;29.08;;;;;;;;;;5051753;28;20031;-68
2020/12/30 06:45:41;;;;;;;43.30;28.15;;;;;;;;;;5051963;28;20029;-69
2020/12/30 06:48:07;;;;;;;47.38;28.30;;;;;;;;;;5051610;28;20071;-68
2020/12/30 06:50:33;;;;;;;47.80;29.23;;;;;;;;;;5051875;28;20024;-68
2020/12/30 06:53:19;;;;;;;47.05;28.35;;;;;;;;;;5051376;28;20029;-69
2020/12/30 06:55:45;;;;;;;47.35;29.38;;;;;;;;;;5051160;28;20057;-69
2020/12/30 06:58:30;;;;;;;50.45;30.02;;;;;;;;;;5053428;28;20083;-69
2020/12/30 07:00:57;;;;;;;42.22;28.90;;;;;;;;;;5055403;28;20087;-69
2020/12/30 07:03:23;;;;;;;43.63;28.02;;;;;;;;;;5055595;28;20013;-69
2020/12/30 07:05:49;;;;;;;41.60;25.08;;;;;;;;;;5055281;28;20111;-69
2020/12/30 07:08:38;;;;;;;44.55;27.38;;;;;;;;;;5055178;28;20025;-69
2020/12/30 07:11:04;;;;;;;44.97;28.80;;;;;;;;;;5055264;28;20021;-70
2020/12/30 07:13:38;;;;;;;41.90;25.98;;;;;;;;;;5055355;28;20024;-69
2020/12/30 07:16:13;;;;;;;43.75;26.60;;;;;;;;;;5055072;28;20465;-69
2020/12/30 07:18:41;;;;;;;46.95;27.00;;;;;;;;;;5055362;28;20158;-69
2020/12/30 07:21:17;;;;;;;40.67;26.55;;;;;;;;;;5055294;28;20096;-69
2020/12/30 07:23:45;;;;;;;40.60;26.85;;;;;;;;;;5055049;28;20025;-69
2020/12/30 07:26:18;;;;;;;46.20;27.45;;;;;;;;;;5055125;28;20100;-70
2020/12/30 07:28:44;;;;;;;46.05;28.27;;;;;;;;;;5054953;28;20454;-70
2020/12/30 07:31:11;;;;;;;44.72;25.77;;;;;;;;;;5054905;28;20041;-70
2020/12/30 07:33:37;;;;;;;44.10;26.70;;;;;;;;;;5055031;28;20029;-70
2020/12/30 07:36:04;;;;;;;40.38;24.20;;;;;;;;;;5054567;28;20025;-70
2020/12/30 07:38:31;;;;;;;40.30;24.92;;;;;;;;;;5055016;28;20021;-70
2020/12/30 07:41:08;;;;;;;40.92;25.73;;;;;;;;;;5054989;28;20025;-69
2020/12/30 07:43:44;;;;;;;41.95;26.23;;;;;;;;;;5054791;28;20082;-69
2020/12/30 07:46:14;;;;;;;39.28;24.17;;;;;;;;;;5054562;28;20017;-69
2020/12/30 07:48:40;;;;;;;41.55;25.55;;;;;;;;;;5054263;28;20517;-69
2020/12/30 07:51:06;;;;;;;44.33;23.75;;;;;;;;;;5054358;28;20051;-69
2020/12/30 07:53:32;;;;;;;43.60;26.10;;;;;;;;;;5054897;28;20021;-69
2020/12/30 07:55:58;;;;;;;40.33;25.38;;;;;;;;;;5054204;28;20032;-69
2020/12/30 07:58:24;;;;;;;40.40;25.10;;;;;;;;;;5054278;28;20013;-69
2020/12/30 08:00:51;;;;;;;43.38;26.10;;;;;;;;;;5054106;28;20017;-69
2020/12/30 08:03:17;;;;;;;41.08;25.52;;;;;;;;;;5054245;28;20021;-69
2020/12/30 08:05:44;;;;;;;39.17;24.23;;;;;;;;;;5054332;28;20025;-70
2020/12/30 08:08:11;;;;;;;38.45;24.15;;;;;;;;;;5052546;28;20358;-69
2020/12/30 08:10:37;;;;;;;38.22;22.05;;;;;;;;;;5054329;28;20056;-69
2020/12/30 08:13:10;;;;;;;36.67;23.45;;;;;;;;;;5053938;28;20040;-70
2020/12/30 08:15:36;;;;;;;42.78;27.13;;;;;;;;;;5053972;28;20116;-69
2020/12/30 08:18:02;;;;;;;38.08;24.65;;;;;;;;;;5053599;28;20423;-69
2020/12/30 08:20:28;;;;;;;41.40;24.98;;;;;;;;;;5054062;28;20036;-69
2020/12/30 08:22:57;;;;;;;39.67;26.42;;;;;;;;;;5063499;28;20024;-69
2020/12/30 08:25:23;;;;;;;38.75;22.48;;;;;;;;;;5059144;28;20070;-69
2020/12/30 08:27:50;;;;;;;37.92;23.70;;;;;;;;;;5060401;28;20020;-69
2020/12/30 08:30:16;;;;;;;25.27;13.52;;;;;;;;;;5052627;28;20372;-69
2020/12/30 08:32:47;;;;;;;38.17;24.00;;;;;;;;;;5056600;28;20049;-70
2020/12/30 08:35:17;;;;;;;36.28;23.50;;;;;;;;;;5054590;28;20094;-69
2020/12/30 08:37:44;;;;;;;36.10;23.67;;;;;;;;;;5053978;28;20021;-69
2020/12/30 08:40:13;;;;;;;37.92;24.10;;;;;;;;;;5072894;28;20020;-69
2020/12/30 08:42:39;;;;;;;44.08;24.83;;;;;;;;;;5074066;28;20104;-69
2020/12/30 08:45:07;;;;;;;41.22;24.38;;;;;;;;;;5073508;28;20021;-69
2020/12/30 08:47:37;;;;;;;36.45;23.42;;;;;;;;;;5073632;28;20020;-69
2020/12/30 08:50:05;;;;;;;43.08;26.83;;;;;;;;;;5073342;28;20070;-70
2020/12/30 08:52:38;;;;;;;43.58;27.00;;;;;;;;;;5073527;28;20083;-70
2020/12/30 08:55:04;;;;;;;39.78;25.00;;;;;;;;;;5073158;28;20416;-70
2020/12/30 08:57:30;;;;;;;39.70;25.38;;;;;;;;;;5073431;28;20027;-70
2020/12/30 09:00:15;;;;;;;38.58;22.58;;;;;;;;;;5072832;28;20021;-70
2020/12/30 09:02:41;;;;;;;38.33;25.85;;;;;;;;;;5073347;28;20096;-70
2020/12/30 09:05:07;;;;;;;45.05;26.25;;;;;;;;;;5072997;28;20020;-69
2020/12/30 09:07:33;;;;;;;39.85;26.15;;;;;;;;;;5073237;28;20020;-69
2020/12/30 09:10:12;;;;;;;39.60;24.58;;;;;;;;;;5071920;28;20360;-69
2020/12/30 09:12:39;;;;;;;43.33;27.60;;;;;;;;;;5073074;28;20024;-69
2020/12/30 09:15:06;;;;;;;47.05;27.17;;;;;;;;;;5059393;28;20039;-69
2020/12/30 09:17:32;;;;;;;42.80;28.02;;;;;;;;;;5053072;28;20075;-69
2020/12/30 09:20:12;;;;;;;43.30;26.08;;;;;;;;;;5052173;28;20021;-69
2020/12/30 09:22:38;;;;;;;37.63;23.77;;;;;;;;;;5052984;28;20458;-69
2020/12/30 09:25:04;;;;;;;40.35;26.15;;;;;;;;;;5052890;28;20048;-70
2020/12/30 09:27:33;;;;;;;36.65;23.20;;;;;;;;;;5053189;28;20064;-69
2020/12/30 09:30:09;;;;;;;40.60;25.85;;;;;;;;;;5052602;28;20496;-69
2020/12/30 09:32:35;;;;;;;44.63;27.33;;;;;;;;;;5051016;28;20053;-69
2020/12/30 09:35:06;;;;;;;43.08;27.83;;;;;;;;;;5052297;28;20078;-69
2020/12/30 09:37:32;;;;;;;;;;;;;;;;;;5053225;28;20020;-69
2020/12/30 09:40:12;;;;;;;44.42;26.88;;;;;;;;;;5052516;28;20252;-69
2020/12/30 09:42:38;;;;;;;43.78;27.85;;;;;;;;;;5052629;28;20017;-69
2020/12/30 09:45:06;;;;;;;43.40;26.65;;;;;;;;;;5052392;28;20021;-69
2020/12/30 09:47:32;;;;;;;47.17;29.55;;;;;;;;;;5052499;28;20021;-69
2020/12/30 09:49:58;;;;;;;46.22;27.38;;;;;;;;;;5052261;28;20096;-69
2020/12/30 09:52:24;;;;;;;39.05;25.80;;;;;;;;;;5052459;28;20021;-69
2020/12/30 09:54:50;;;;;;;42.38;27.30;;;;;;;;;;5052393;28;20472;-70
2020/12/30 09:57:16;;;;;;;39.95;26.42;;;;;;;;;;5052391;28;20507;-69
2020/12/30 09:59:43;;;;;;;42.85;25.95;;;;;;;;;;5052415;28;20021;-69
2020/12/30 10:02:09;;;;;;;40.22;24.13;;;;;;;;;;5051929;28;20021;-69
2020/12/30 10:04:35;;;;;;;44.95;26.83;;;;;;;;;;5052314;28;20017;-69
2020/12/30 10:07:01;;;;;;;38.45;24.98;;;;;;;;;;5050698;28;20021;-70
2020/12/30 10:09:27;;;;;;;35.80;23.85;;;;;;;;;;5054553;28;20069;-70
2020/12/30 10:11:53;;;;;;;33.63;21.98;;;;;;;;;;5071899;28;20457;-70
2020/12/30 10:14:20;;;;;;;31.27;20.05;;;;;;;;;;5065005;28;20021;-71
2020/12/30 10:16:47;;;;;;;30.48;21.30;;;;;;;;;;5052032;28;20017;-69
2020/12/30 10:19:13;;;;;;;37.35;23.75;;;;;;;;;;5050522;28;20365;-69
2020/12/30 10:21:39;;;;;;;38.72;25.38;;;;;;;;;;5052093;28;20392;-69
2020/12/30 10:24:06;;;;;;;40.85;23.77;;;;;;;;;;5051938;28;20183;-70
2020/12/30 10:26:32;;;;;;;33.45;22.90;;;;;;;;;;5052070;28;20477;-70
2020/12/30 10:28:58;;;;;;;40.75;25.58;;;;;;;;;;5051942;28;20051;-70
2020/12/30 10:31:25;;;;;;;40.70;26.52;;;;;;;;;;5052378;28;20052;-70
2020/12/30 10:33:51;;;;;;;36.30;24.80;;;;;;;;;;5056373;28;20349;-70
2020/12/30 10:36:17;;;;;;;40.50;25.15;;;;;;;;;;5055761;28;20036;-70
2020/12/30 10:38:43;;;;;;;33.60;21.50;;;;;;;;;;5056078;28;20033;-70
2020/12/30 10:41:14;;;;;;;41.03;25.15;;;;;;;;;;5055827;28;20013;-69
2020/12/30 10:43:40;;;;;;;35.80;23.52;;;;;;;;;;5056066;28;20453;-69
2020/12/30 10:46:11;;;;;;;35.63;22.48;;;;;;;;;;5055754;28;20017;-69
2020/12/30 10:48:37;;;;;;;40.35;24.67;;;;;;;;;;5055613;28;20369;-69
2020/12/30 10:51:03;;;;;;;39.63;24.42;;;;;;;;;;5055219;28;20404;-69
2020/12/30 10:53:29;;;;;;;36.85;24.63;;;;;;;;;;5056112;28;20086;-70
2020/12/30 10:55:55;;;;;;;39.95;25.27;;;;;;;;;;5053845;28;20102;-69
2020/12/30 10:58:21;;;;;;;37.35;26.23;;;;;;;;;;5055910;28;20020;-69
2020/12/30 11:00:47;;;;;;;39.80;24.50;;;;;;;;;;5053421;28;20028;-69
2020/12/30 11:03:13;;;;;;;37.95;25.73;;;;;;;;;;5054966;28;20079;-72
2020/12/30 11:05:39;;;;;;;37.90;25.40;;;;;;;;;;5054994;28;20062;-73
2020/12/30 11:08:05;;;;;;;41.60;27.20;;;;;;;;;;5053692;28;20021;-73
2020/12/30 11:10:31;;;;;;;39.22;25.85;;;;;;;;;;5055587;28;20055;-72
2020/12/30 11:12:57;;;;;;;42.80;26.27;;;;;;;;;;5054633;28;20075;-73
2020/12/30 11:15:23;;;;;;;36.22;24.52;;;;;;;;;;5054737;28;20025;-73
2020/12/30 11:17:49;;;;;;;43.10;26.50;;;;;;;;;;5054873;28;20013;-74
2020/12/30 11:20:15;;;;;;;35.47;23.77;;;;;;;;;;5053763;28;20021;-74
2020/12/30 11:22:41;;;;;;;38.60;26.02;;;;;;;;;;5055143;28;20090;-73
2020/12/30 11:25:07;;;;;;;34.05;22.95;;;;;;;;;;5052514;28;20057;-72
2020/12/30 11:27:32;;;;;;;36.55;24.08;;;;;;;;;;5052553;28;20027;-72
2020/12/30 11:29:58;;;;;;;35.80;23.23;;;;;;;;;;5050982;28;20028;-72
2020/12/30 11:32:25;;;;;;;35.20;24.15;;;;;;;;;;5053814;28;20450;-72
2020/12/30 11:34:51;;;;;;;35.40;24.40;;;;;;;;;;5054952;28;20033;-72
2020/12/30 11:37:17;;;;;;;38.55;25.17;;;;;;;;;;5053414;28;20025;-71
2020/12/30 11:39:43;;;;;;;41.13;23.65;;;;;;;;;;5053899;28;20020;-71
2020/12/30 11:42:09;;;;;;;31.25;21.33;;;;;;;;;;5054204;28;20082;-71
2020/12/30 11:44:35;;;;;;;36.80;22.95;;;;;;;;;;5053658;28;20029;-72
2020/12/30 11:47:01;;;;;;;34.03;20.25;;;;;;;;;;5054763;28;20025;-71
2020/12/30 11:49:27;;;;;;;37.42;24.42;;;;;;;;;;5053495;28;20032;-71
2020/12/30 11:51:53;;;;;;;46.78;30.95;;;;;;;;;;5053353;28;20423;-71
2020/12/30 11:54:19;;;;;;;36.72;23.58;;;;;;;;;;5054296;28;20103;-71
2020/12/30 11:56:45;;;;;;;28.73;19.88;;;;;;;;;;5054911;28;20252;-71
2020/12/30 11:59:11;;;;;;;32.28;21.38;;;;;;;;;;5054338;28;20017;-71
2020/12/30 12:01:38;;;;;;;27.38;18.30;;;;;;;;;;5054711;28;20024;-71
2020/12/30 12:04:04;;;;;;;27.15;17.95;;;;;;;;;;5053490;28;20017;-71
2020/12/30 12:06:30;;;;;;;26.85;19.50;;;;;;;;;;5054191;28;20025;-71
2020/12/30 12:08:56;;;;;;;24.52;17.98;;;;;;;;;;5054290;28;20025;-71
2020/12/30 12:11:22;;;;;;;33.72;20.67;;;;;;;;;;5052846;28;20021;-72
2020/12/30 12:13:48;;;;;;;27.85;17.52;;;;;;;;;;5054299;28;20009;-72
2020/12/30 12:16:14;;;;;;;25.85;17.13;;;;;;;;;;5053873;28;20167;-71
2020/12/30 12:18:41;;;;;;;22.77;14.70;;;;;;;;;;5053623;28;20056;-72
2020/12/30 12:21:07;;;;;;;24.15;16.48;;;;;;;;;;5050637;28;20445;-72
2020/12/30 12:23:33;;;;;;;21.90;14.18;;;;;;;;;;5052572;28;20056;-71
2020/12/30 12:25:59;;;;;;;24.80;15.10;;;;;;;;;;5052068;28;20021;-72
2020/12/30 12:28:40;;;;;;;22.60;13.52;;;;;;;;;;5052402;28;20032;-72
2020/12/30 12:31:06;;;;;;;18.95;13.68;;;;;;;;;;5053359;28;20087;-71
2020/12/30 12:33:32;;;;;;;24.73;14.50;;;;;;;;;;5053656;28;20361;-72
2020/12/30 12:35:58;;;;;;;17.75;10.85;;;;;;;;;;5053640;28;20465;-72
2020/12/30 12:38:24;;;;;;;15.73;8.60;;;;;;;;;;5053789;28;20025;-71
2020/12/30 12:40:50;;;;;;;24.73;13.63;;;;;;;;;;5053773;28;20024;-72
2020/12/30 12:43:16;;;;;;;24.02;12.85;;;;;;;;;;5052211;28;20021;-72
2020/12/30 12:45:42;;;;;;;16.95;12.82;;;;;;;;;;5053563;28;20025;-72
2020/12/30 12:48:08;;;;;;;18.60;12.88;;;;;;;;;;5053624;28;20017;-72
2020/12/30 12:50:34;;;;;;;23.45;12.18;;;;;;;;;;5053433;28;20025;-71
2020/12/30 12:53:00;;;;;;;18.02;12.38;;;;;;;;;;5052001;28;20389;-72
2020/12/30 12:55:26;;;;;;;21.58;13.10;;;;;;;;;;5052236;28;20032;-72
2020/12/30 12:57:52;;;;;;;21.95;12.85;;;;;;;;;;5053518;28;20028;-72
2020/12/30 13:00:18;;;;;;;18.58;11.18;;;;;;;;;;5052905;28;20017;-72
2020/12/30 13:02:44;;;;;;;25.15;14.23;;;;;;;;;;5053062;28;20017;-72
2020/12/30 13:05:11;;;;;;;19.48;11.98;;;;;;;;;;5052974;28;20446;-72
2020/12/30 13:07:37;;;;;;;22.48;14.35;;;;;;;;;;5053204;28;20020;-72
2020/12/30 13:10:03;;;;;;;19.65;13.10;;;;;;;;;;5053203;28;20067;-72
2020/12/30 13:12:29;;;;;;;20.00;14.77;;;;;;;;;;5053077;28;20021;-72
2020/12/30 13:14:55;;;;;;;21.00;13.43;;;;;;;;;;5064744;28;20027;-72
2020/12/30 13:17:21;;;;;;;22.85;13.63;;;;;;;;;;5072951;28;20494;-72
2020/12/30 13:19:47;;;;;;;23.92;14.52;;;;;;;;;;5069869;28;20021;-72
2020/12/30 13:22:13;;;;;;;21.67;14.82;;;;;;;;;;5064523;28;20364;-72
2020/12/30 13:24:39;;;;;;;19.00;12.82;;;;;;;;;;5061808;28;20532;-72
2020/12/30 13:27:05;;;;;;;23.27;13.98;;;;;;;;;;5062266;28;20511;-72
2020/12/30 13:29:31;;;;;;;23.13;13.70;;;;;;;;;;5061901;28;20017;-72
2020/12/30 13:31:57;;;;;;;18.42;11.95;;;;;;;;;;5060523;28;20098;-73
2020/12/30 13:34:23;;;;;;;22.13;13.68;;;;;;;;;;5069322;28;20032;-73
2020/12/30 13:36:49;;;;;;;20.90;11.88;;;;;;;;;;5072402;28;20027;-72
2020/12/30 13:39:15;;;;;;;24.65;16.55;;;;;;;;;;5071174;28;20099;-72
2020/12/30 13:41:42;;;;;;;24.90;16.20;;;;;;;;;;5072645;28;20017;-72
2020/12/30 13:44:08;;;;;;;21.02;12.30;;;;;;;;;;5071021;28;20024;-73
2020/12/30 13:46:34;;;;;;;21.80;13.82;;;;;;;;;;5072452;28;20024;-74
2020/12/30 13:49:00;;;;;;;40.85;32.80;;;;;;;;;;5071286;28;20462;-73
2020/12/30 13:51:26;;;;;;;20.83;13.23;;;;;;;;;;5072338;28;20028;-73
2020/12/30 13:53:52;;;;;;;21.48;11.55;;;;;;;;;;5072500;28;20115;-72
2020/12/30 13:56:25;;;;;;;27.65;20.33;;;;;;;;;;5072182;28;20178;-73
2020/12/30 13:58:51;;;;;;;21.77;11.52;;;;;;;;;;5072685;28;20461;-72
2020/12/30 14:01:18;;;;;;;22.65;14.85;;;;;;;;;;5072124;28;20012;-73
2020/12/30 14:03:44;;;;;;;22.67;13.93;;;;;;;;;;5072405;28;20055;-73
2020/12/30 14:06:10;;;;;;;21.67;13.80;;;;;;;;;;5071736;28;20044;-73
2020/12/30 14:08:36;;;;;;;18.55;13.18;;;;;;;;;;5071031;28;20365;-73
2020/12/30 14:11:02;;;;;;;25.45;13.95;;;;;;;;;;5072324;28;20059;-73
2020/12/30 14:13:28;;;;;;;17.02;11.10;;;;;;;;;;5071997;28;20526;-71
2020/12/30 14:15:54;;;;;;;13.57;9.57;;;;;;;;;;5051783;28;20461;-72
2020/12/30 14:18:20;;;;;;;18.35;10.82;;;;;;;;;;5051884;28;20028;-72